createdAt,value
2023-06-10T00:02:07.702Z,4.70
2023-06-10T00:04:34.329Z,4.74
2023-06-10T00:07:01.137Z,4.66
2023-06-10T00:09:27.587Z,4.69
2023-06-10T00:11:54.058Z,4.80
2023-06-10T00:14:20.502Z,4.74
2023-06-10T00:16:46.988Z,4.52
2023-06-10T00:19:13.453Z,4.76
2023-06-10T00:21:39.880Z,4.76
2023-06-10T00:24:06.343Z,4.43
2023-06-10T00:26:32.904Z,4.55
2023-06-10T00:28:59.373Z,4.84
2023-06-10T00:31:27.109Z,4.70
2023-06-10T00:33:53.578Z,4.56
2023-06-10T00:36:20.012Z,4.67
2023-06-10T00:38:46.467Z,4.37
2023-06-10T00:41:12.951Z,4.52
2023-06-10T00:43:39.394Z,4.66
2023-06-10T00:46:05.885Z,4.67
2023-06-10T00:48:32.433Z,4.49
2023-06-10T00:50:58.897Z,4.52
2023-06-10T00:53:25.359Z,4.65
2023-06-10T00:55:51.850Z,4.63
2023-06-10T00:58:18.277Z,4.40
2023-06-10T01:00:44.719Z,4.41
2023-06-10T01:03:11.296Z,4.72
2023-06-10T01:05:37.834Z,4.91
2023-06-10T01:08:04.284Z,4.49
2023-06-10T01:10:30.750Z,4.59
2023-06-10T01:12:57.203Z,4.54
2023-06-10T01:15:23.664Z,4.43
2023-06-10T01:17:50.268Z,4.63
2023-06-10T01:20:16.806Z,4.38
2023-06-10T01:22:43.263Z,4.34
2023-06-10T01:25:09.959Z,4.59
2023-06-10T01:27:36.615Z,4.57
2023-06-10T01:30:03.064Z,4.30
2023-06-10T01:32:29.580Z,4.31
2023-06-10T01:34:56.080Z,4.28
2023-06-10T01:37:22.517Z,4.42
2023-06-10T01:39:48.964Z,4.43
2023-06-10T01:42:15.436Z,4.24
2023-06-10T01:44:41.879Z,4.35
2023-06-10T01:47:08.361Z,4.38
2023-06-10T01:49:34.901Z,4.12
2023-06-10T01:52:01.338Z,4.07
2023-06-10T01:54:27.789Z,4.31
2023-06-10T01:56:54.270Z,4.44
2023-06-10T01:59:20.709Z,4.31
2023-06-10T02:01:47.170Z,4.61
2023-06-10T02:04:13.648Z,4.38
2023-06-10T02:06:40.104Z,4.53
2023-06-10T02:09:06.529Z,4.42
2023-06-10T02:11:33.024Z,4.30
2023-06-10T02:13:59.480Z,4.35
2023-06-10T02:16:25.974Z,4.35
2023-06-10T02:18:52.492Z,4.15
2023-06-10T02:21:18.929Z,4.15
2023-06-10T02:23:45.459Z,4.12
2023-06-10T02:26:11.967Z,4.32
2023-06-10T02:28:38.414Z,4.42
2023-06-10T02:31:04.901Z,4.34
2023-06-10T02:33:31.361Z,4.01
2023-06-10T02:35:57.825Z,4.24
2023-06-10T02:38:24.268Z,4.28
2023-06-10T02:40:50.748Z,4.13
2023-06-10T02:43:17.196Z,4.52
2023-06-10T02:45:43.690Z,4.26
2023-06-10T02:48:10.439Z,4.03
2023-06-10T02:50:36.911Z,4.02
2023-06-10T02:53:03.360Z,4.10
2023-06-10T02:55:29.843Z,4.18
2023-06-10T02:57:56.287Z,4.17
2023-06-10T03:00:22.780Z,4.07
2023-06-10T03:02:49.332Z,3.82
2023-06-10T03:05:15.799Z,3.87
2023-06-10T03:07:42.253Z,4.28
2023-06-10T03:10:08.751Z,4.27
2023-06-10T03:12:35.188Z,4.06
2023-06-10T03:15:01.656Z,3.79
2023-06-10T03:17:28.341Z,4.01
2023-06-10T03:19:54.839Z,4.06
2023-06-10T03:22:21.340Z,4.09
2023-06-10T03:24:47.832Z,3.94
2023-06-10T03:27:14.304Z,4.03
2023-06-10T03:29:40.756Z,4.05
2023-06-10T03:32:07.226Z,4.14
2023-06-10T03:34:33.684Z,4.10
2023-06-10T03:37:00.150Z,4.17
2023-06-10T03:39:26.635Z,3.91
2023-06-10T03:41:53.075Z,4.01
2023-06-10T03:44:19.602Z,3.92
2023-06-10T03:46:46.111Z,4.04
2023-06-10T03:49:12.558Z,3.84
2023-06-10T03:51:39.079Z,3.95
2023-06-10T03:54:05.546Z,3.80
2023-06-10T03:56:32.108Z,4.12
2023-06-10T03:58:58.568Z,3.73
2023-06-10T04:01:25.074Z,3.72
2023-06-10T04:03:51.518Z,3.96
2023-06-10T04:06:17.977Z,3.87
2023-06-10T04:08:44.458Z,4.07
2023-06-10T04:11:10.939Z,3.90
2023-06-10T04:13:37.388Z,3.80
2023-06-10T04:16:03.862Z,3.66
2023-06-10T04:18:30.296Z,3.92
2023-06-10T04:20:56.741Z,3.95
2023-06-10T04:23:23.214Z,3.87
2023-06-10T04:25:49.693Z,3.93
2023-06-10T04:28:16.132Z,3.98
2023-06-10T04:30:42.568Z,4.17
2023-06-10T04:33:09.071Z,3.74
2023-06-10T04:35:35.630Z,3.87
2023-06-10T04:38:02.075Z,3.91
2023-06-10T04:40:28.607Z,3.80
2023-06-10T04:42:55.206Z,3.99
2023-06-10T04:45:21.681Z,3.71
2023-06-10T04:47:48.192Z,3.85
2023-06-10T04:50:14.700Z,3.88
2023-06-10T04:52:41.155Z,3.66
2023-06-10T04:55:07.922Z,3.77
2023-06-10T04:57:34.545Z,3.85
2023-06-10T05:00:01.068Z,3.65
2023-06-10T05:02:27.568Z,3.72
2023-06-10T05:04:54.009Z,3.65
2023-06-10T05:07:20.437Z,3.85
2023-06-10T05:09:46.913Z,3.61
2023-06-10T05:12:13.381Z,3.83
2023-06-10T05:14:39.844Z,3.76
2023-06-10T05:17:06.330Z,3.76
2023-06-10T05:19:32.795Z,3.81
2023-06-10T05:21:59.252Z,3.49
2023-06-10T05:24:25.793Z,3.61
2023-06-10T05:26:52.385Z,3.68
2023-06-10T05:29:18.876Z,3.69
2023-06-10T05:31:45.356Z,3.54
2023-06-10T05:34:11.879Z,3.53
2023-06-10T05:36:38.372Z,3.50
2023-06-10T05:39:04.834Z,3.45
2023-06-10T05:41:31.305Z,3.80
2023-06-10T05:43:57.753Z,3.77
2023-06-10T05:46:24.212Z,3.54
2023-06-10T05:48:50.724Z,3.62
2023-06-10T05:51:17.150Z,3.52
2023-06-10T05:53:43.638Z,3.57
2023-06-10T05:56:10.141Z,3.53
2023-06-10T05:58:36.607Z,3.67
2023-06-10T06:01:03.073Z,3.63
2023-06-10T06:03:29.815Z,3.57
2023-06-10T06:05:56.528Z,3.51
2023-06-10T06:08:23.154Z,3.33
2023-06-10T06:10:49.612Z,3.48
2023-06-10T06:13:16.097Z,3.53
2023-06-10T06:15:42.577Z,3.38
2023-06-10T06:18:09.094Z,3.72
2023-06-10T06:20:35.657Z,3.49
2023-06-10T06:23:02.113Z,3.68
2023-06-10T06:25:28.628Z,3.30
2023-06-10T06:27:55.109Z,3.58
2023-06-10T06:30:21.572Z,3.68
2023-06-10T06:32:48.143Z,3.45
2023-06-10T06:35:14.617Z,3.42
2023-06-10T06:37:41.076Z,3.54
2023-06-10T06:40:07.545Z,3.53
2023-06-10T06:42:33.969Z,3.44
2023-06-10T06:45:00.421Z,3.53
2023-06-10T06:47:27.016Z,3.26
2023-06-10T06:49:53.515Z,3.47
2023-06-10T06:52:19.944Z,3.39
2023-06-10T06:54:46.405Z,3.27
2023-06-10T06:57:12.971Z,3.16
2023-06-10T06:59:39.443Z,3.22
2023-06-10T07:02:05.927Z,3.31
2023-06-10T07:04:32.457Z,3.22
2023-06-10T07:06:58.994Z,3.46
2023-06-10T07:09:25.458Z,3.43
2023-06-10T07:11:51.917Z,3.35
2023-06-10T07:14:18.369Z,3.41
2023-06-10T07:16:44.875Z,3.40
2023-06-10T07:19:11.462Z,3.34
2023-06-10T07:21:37.906Z,3.14
2023-06-10T07:24:04.401Z,3.16
2023-06-10T07:26:30.888Z,3.04
2023-06-10T07:28:57.316Z,3.01
2023-06-10T07:31:23.842Z,3.13
2023-06-10T07:33:50.300Z,3.25
2023-06-10T07:36:16.742Z,3.41
2023-06-10T07:38:43.401Z,3.25
2023-06-10T07:41:09.892Z,3.46
2023-06-10T07:43:36.349Z,3.45
2023-06-10T07:46:02.879Z,3.36
2023-06-10T07:48:29.434Z,3.65
2023-06-10T07:50:55.910Z,3.45
2023-06-10T07:53:22.373Z,3.39
2023-06-10T07:55:48.974Z,3.37
2023-06-10T07:58:15.444Z,3.32
2023-06-10T08:00:41.929Z,3.41
2023-06-10T08:03:08.523Z,3.24
2023-06-10T08:05:35.050Z,3.36
2023-06-10T08:08:03.724Z,3.27
2023-06-10T08:10:30.726Z,3.21
2023-06-10T08:12:57.173Z,3.54
2023-06-10T08:15:23.667Z,3.49
2023-06-10T08:17:50.169Z,3.40
2023-06-10T08:20:16.641Z,3.20
2023-06-10T08:22:43.170Z,3.29
2023-06-10T08:25:09.827Z,3.37
2023-06-10T08:27:36.437Z,3.47
2023-06-10T08:30:02.922Z,3.47
2023-06-10T08:32:29.499Z,3.13
2023-06-10T08:34:55.983Z,3.05
2023-06-10T08:37:22.412Z,2.80
2023-06-10T08:39:48.881Z,3.20
2023-06-10T08:42:15.367Z,3.38
2023-06-10T08:44:41.832Z,3.40
2023-06-10T08:47:08.286Z,3.24
2023-06-10T08:49:34.739Z,3.37
2023-06-10T08:52:01.220Z,3.55
2023-06-10T08:54:27.690Z,3.46
2023-06-10T08:56:54.170Z,3.11
2023-06-10T08:59:20.692Z,3.37
2023-06-10T09:01:47.188Z,3.49
2023-06-10T09:04:13.718Z,3.58
2023-06-10T09:06:40.270Z,3.53
2023-06-10T09:09:06.742Z,3.34
2023-06-10T09:11:33.233Z,3.42
2023-06-10T09:13:59.700Z,3.18
2023-06-10T09:16:26.235Z,3.52
2023-06-10T09:18:52.732Z,3.49
2023-06-10T09:21:19.182Z,3.77
2023-06-10T09:23:45.677Z,3.72
2023-06-10T09:26:12.540Z,3.60
2023-06-10T09:28:39.030Z,3.65
2023-06-10T09:31:05.641Z,3.51
2023-06-10T09:33:32.198Z,3.40
2023-06-10T09:36:01.935Z,3.77
2023-06-10T09:38:28.481Z,3.52
2023-06-10T09:40:55.038Z,3.64
2023-06-10T09:43:21.737Z,3.48
2023-06-10T09:45:48.290Z,3.57
2023-06-10T09:48:14.794Z,3.57
2023-06-10T09:50:41.279Z,3.69
2023-06-10T09:53:07.794Z,3.68
2023-06-10T09:55:34.297Z,3.67
2023-06-10T09:58:00.742Z,3.53
2023-06-10T10:00:27.227Z,3.73
2023-06-10T10:02:53.743Z,3.86
2023-06-10T10:05:20.295Z,3.61
2023-06-10T10:07:46.866Z,3.61
2023-06-10T10:10:13.357Z,3.59
2023-06-10T10:12:39.836Z,3.91
2023-06-10T10:15:06.513Z,3.72
2023-06-10T10:17:33.202Z,3.66
2023-06-10T10:19:59.739Z,3.60
2023-06-10T10:22:26.226Z,3.62
2023-06-10T10:24:52.732Z,3.53
2023-06-10T10:27:19.242Z,3.60
2023-06-10T10:29:45.790Z,3.78
2023-06-10T10:32:12.393Z,3.59
2023-06-10T10:34:38.966Z,3.58
2023-06-10T10:37:05.446Z,3.48
2023-06-10T10:39:31.908Z,3.40
2023-06-10T10:41:58.460Z,3.22
2023-06-10T10:44:24.934Z,3.43
2023-06-10T10:46:51.470Z,3.59
2023-06-10T10:49:17.978Z,3.49
2023-06-10T10:51:44.430Z,3.65
2023-06-10T10:54:10.886Z,3.59
2023-06-10T10:56:37.378Z,3.59
2023-06-10T10:59:03.840Z,3.35
2023-06-10T11:01:30.418Z,3.31
2023-06-10T11:03:57.161Z,3.37
2023-06-10T11:06:23.781Z,3.46
2023-06-10T11:08:50.450Z,3.68
2023-06-10T11:11:16.911Z,3.31
2023-06-10T11:13:43.358Z,3.38
2023-06-10T11:16:09.880Z,3.17
2023-06-10T11:18:36.350Z,3.10
2023-06-10T11:21:02.853Z,3.17
2023-06-10T11:23:29.555Z,2.70
2023-06-10T11:25:56.132Z,3.28
2023-06-10T11:28:22.598Z,3.39
2023-06-10T11:30:49.149Z,3.18
2023-06-10T11:33:15.885Z,2.92
2023-06-10T11:35:42.514Z,3.08
2023-06-10T11:38:09.010Z,2.84
2023-06-10T11:40:35.524Z,3.29
2023-06-10T11:43:01.967Z,3.14
2023-06-10T11:45:28.407Z,2.99
2023-06-10T11:47:54.866Z,2.99
2023-06-10T11:50:21.483Z,3.01
2023-06-10T11:52:48.106Z,2.90
2023-06-10T11:55:14.722Z,3.01
2023-06-10T11:57:41.352Z,3.34
2023-06-10T12:00:07.811Z,3.07
2023-06-10T12:02:34.377Z,2.68
2023-06-10T12:05:00.944Z,2.99
2023-06-10T12:07:27.535Z,2.96
2023-06-10T12:09:53.992Z,2.71
2023-06-10T12:12:20.436Z,2.76
2023-06-10T12:14:46.915Z,2.90
2023-06-10T12:17:13.372Z,2.78
2023-06-10T12:19:41.328Z,2.84
2023-06-10T12:22:08.060Z,2.99
2023-06-10T12:24:34.507Z,2.91
2023-06-10T12:27:00.964Z,2.82
2023-06-10T12:29:27.509Z,2.76
2023-06-10T12:31:53.989Z,2.83
2023-06-10T12:34:20.432Z,2.73
2023-06-10T12:36:46.935Z,2.86
2023-06-10T12:39:13.414Z,3.11
2023-06-10T12:41:39.857Z,2.75
2023-06-10T12:44:06.319Z,3.08
2023-06-10T12:46:32.862Z,3.07
2023-06-10T12:48:59.452Z,2.75
2023-06-10T12:51:25.920Z,2.83
2023-06-10T12:53:52.379Z,2.90
2023-06-10T12:56:18.842Z,2.88
2023-06-10T12:58:46.770Z,2.83
2023-06-10T13:01:13.477Z,2.78
2023-06-10T13:03:39.929Z,2.48
2023-06-10T13:06:06.462Z,2.72
2023-06-10T13:08:32.975Z,2.73
2023-06-10T13:10:59.416Z,2.75
2023-06-10T13:13:25.904Z,2.60
2023-06-10T13:15:56.475Z,2.75
2023-06-10T13:18:22.909Z,2.64
2023-06-10T13:20:49.408Z,2.72
2023-06-10T13:23:15.833Z,2.66
2023-06-10T13:25:42.330Z,2.78
2023-06-10T13:28:08.816Z,2.72
2023-06-10T13:30:35.275Z,2.69
2023-06-10T13:33:02.016Z,2.74
2023-06-10T13:35:28.596Z,2.66
2023-06-10T13:37:55.057Z,2.61
2023-06-10T13:40:21.520Z,2.47
2023-06-10T13:42:47.996Z,2.37
2023-06-10T13:45:14.664Z,2.22
2023-06-10T13:47:41.398Z,2.36
2023-06-10T13:50:07.914Z,2.31
2023-06-10T13:52:34.403Z,2.22
2023-06-10T13:55:00.877Z,2.11
2023-06-10T13:57:27.376Z,2.12
2023-06-10T13:59:53.814Z,2.00
2023-06-10T14:02:20.432Z,2.08
2023-06-10T14:04:47.001Z,2.15
2023-06-10T14:07:13.516Z,2.05
2023-06-10T14:09:39.987Z,1.89
2023-06-10T14:12:06.518Z,1.98
2023-06-10T14:14:32.969Z,2.07
2023-06-10T14:16:59.513Z,2.17
2023-06-10T14:19:26.087Z,2.17
2023-06-10T14:21:52.581Z,2.10
2023-06-10T14:24:19.192Z,2.02
2023-06-10T14:26:45.782Z,1.91
2023-06-10T14:29:12.226Z,1.89
2023-06-10T14:31:38.768Z,1.89
2023-06-10T14:34:05.261Z,1.72
2023-06-10T14:36:31.698Z,1.80
2023-06-10T14:38:58.150Z,1.61
2023-06-10T14:41:24.702Z,1.78
2023-06-10T14:43:51.153Z,1.68
2023-06-10T14:46:17.672Z,1.63
2023-06-10T14:48:44.123Z,1.94
2023-06-10T14:51:10.569Z,1.84
2023-06-10T14:53:37.049Z,1.77
2023-06-10T14:56:03.537Z,1.67
2023-06-10T14:58:30.009Z,2.09
2023-06-10T15:00:56.553Z,1.82
2023-06-10T15:03:23.068Z,1.80
2023-06-10T15:05:49.788Z,1.86
2023-06-10T15:08:16.216Z,1.68
2023-06-10T15:10:42.694Z,1.48
2023-06-10T15:13:09.183Z,1.86
2023-06-10T15:15:35.618Z,1.57
2023-06-10T15:18:02.180Z,1.58
2023-06-10T15:20:28.691Z,1.81
2023-06-10T15:22:55.266Z,1.67
2023-06-10T15:25:30.656Z,1.71
2023-06-10T15:27:58.112Z,1.73
2023-06-10T15:30:24.667Z,1.78
2023-06-10T15:32:51.155Z,1.62
2023-06-10T15:35:17.650Z,1.89
2023-06-10T15:37:44.139Z,1.81
2023-06-10T15:40:10.618Z,1.67
2023-06-10T15:42:37.191Z,1.75
2023-06-10T15:45:03.724Z,1.70
2023-06-10T15:47:30.210Z,1.85
2023-06-10T15:49:56.680Z,1.80
2023-06-10T15:52:23.272Z,1.73
2023-06-10T15:54:49.732Z,1.60
2023-06-10T15:57:16.177Z,1.75
2023-06-10T15:59:42.682Z,1.75
2023-06-10T16:02:09.105Z,1.57
2023-06-10T16:04:35.600Z,1.64
2023-06-10T16:07:02.158Z,1.71
2023-06-10T16:09:28.621Z,1.79
2023-06-10T16:11:55.076Z,1.68
2023-06-10T16:14:21.528Z,1.77
2023-06-10T16:16:47.994Z,1.75
2023-06-10T16:19:14.493Z,1.73
2023-06-10T16:21:41.027Z,1.70
2023-06-10T16:24:07.547Z,1.76
2023-06-10T16:26:34.003Z,1.75
2023-06-10T16:29:00.493Z,1.80
2023-06-10T16:31:26.990Z,1.80
2023-06-10T16:33:53.498Z,2.00
2023-06-10T16:36:19.989Z,1.81
2023-06-10T16:38:46.450Z,1.74
2023-06-10T16:41:12.900Z,1.87
2023-06-10T16:43:39.367Z,2.08
2023-06-10T16:46:05.853Z,1.97
2023-06-10T16:48:32.308Z,1.92
2023-06-10T16:50:58.781Z,2.17
2023-06-10T16:53:25.220Z,2.12
2023-06-10T16:55:51.686Z,1.90
2023-06-10T16:58:18.194Z,2.10
2023-06-10T17:00:44.635Z,2.04
2023-06-10T17:03:11.172Z,2.08
2023-06-10T17:05:37.950Z,2.04
2023-06-10T17:08:04.424Z,2.26
2023-06-10T17:10:30.905Z,2.24
2023-06-10T17:12:57.391Z,2.09
2023-06-10T17:15:23.869Z,2.03
2023-06-10T17:17:50.556Z,2.24
2023-06-10T17:20:17.068Z,2.23
2023-06-10T17:22:43.526Z,2.12
2023-06-10T17:25:10.324Z,2.30
2023-06-10T17:27:37.029Z,2.10
2023-06-10T17:30:03.499Z,1.93
2023-06-10T17:32:29.948Z,2.00
2023-06-10T17:34:56.447Z,2.15
2023-06-10T17:37:22.973Z,2.05
2023-06-10T17:39:49.424Z,2.00
2023-06-10T17:42:15.942Z,2.18
2023-06-10T17:44:42.396Z,2.24
2023-06-10T17:47:08.833Z,2.05
2023-06-10T17:49:35.373Z,2.12
2023-06-10T17:52:01.814Z,2.09
2023-06-10T17:54:28.261Z,1.91
2023-06-10T17:56:54.800Z,1.96
2023-06-10T17:59:21.252Z,2.06
2023-06-10T18:01:47.725Z,1.97
2023-06-10T18:04:14.363Z,2.06
2023-06-10T18:06:40.950Z,2.13
2023-06-10T18:09:09.465Z,2.14
2023-06-10T18:11:38.101Z,2.29
2023-06-10T18:14:04.551Z,2.25
2023-06-10T18:16:31.027Z,2.63
2023-06-10T18:18:57.536Z,2.55
2023-06-10T18:21:23.984Z,2.49
2023-06-10T18:23:50.501Z,2.20
2023-06-10T18:26:17.033Z,2.48
2023-06-10T18:28:43.900Z,2.38
2023-06-10T18:31:10.372Z,2.46
2023-06-10T18:33:36.857Z,2.63
2023-06-10T18:36:03.358Z,2.49
2023-06-10T18:38:29.826Z,2.40
2023-06-10T18:40:56.316Z,2.35
2023-06-10T18:43:22.759Z,2.31
2023-06-10T18:45:49.216Z,2.34
2023-06-10T18:48:15.753Z,2.16
2023-06-10T18:50:42.236Z,2.27
2023-06-10T18:53:08.722Z,2.23
2023-06-10T18:55:35.190Z,2.60
2023-06-10T18:58:01.634Z,2.43
2023-06-10T19:00:28.104Z,2.28
2023-06-10T19:02:54.618Z,2.41
2023-06-10T19:05:21.135Z,2.45
2023-06-10T19:07:47.633Z,2.55
2023-06-10T19:10:14.078Z,2.31
2023-06-10T19:12:40.520Z,2.63
2023-06-10T19:15:07.101Z,2.45
2023-06-10T19:17:33.691Z,2.54
2023-06-10T19:20:00.249Z,2.39
2023-06-10T19:22:26.712Z,2.57
2023-06-10T19:24:53.153Z,2.63
2023-06-10T19:27:19.601Z,2.43
2023-06-10T19:29:46.106Z,2.59
2023-06-10T19:32:12.550Z,2.45
2023-06-10T19:34:38.998Z,2.67
2023-06-10T19:37:05.507Z,2.64
2023-06-10T19:39:31.981Z,2.52
2023-06-10T19:41:58.438Z,2.44
2023-06-10T19:44:25.022Z,2.55
2023-06-10T19:46:51.551Z,2.47
2023-06-10T19:49:18.062Z,2.08
2023-06-10T19:51:44.577Z,2.52
2023-06-10T19:54:11.010Z,2.44
2023-06-10T19:56:37.453Z,2.47
2023-06-10T19:59:04.043Z,2.44
2023-06-10T20:01:30.560Z,2.70
2023-06-10T20:03:57.081Z,2.47
2023-06-10T20:06:23.629Z,2.45
2023-06-10T20:08:50.067Z,2.65
2023-06-10T20:11:16.543Z,2.58
2023-06-10T20:13:43.039Z,2.73
2023-06-10T20:16:09.519Z,2.43
2023-06-10T20:18:35.972Z,2.75
2023-06-10T20:21:02.514Z,2.63
2023-06-10T20:23:28.969Z,2.63
2023-06-10T20:25:55.396Z,2.88
2023-06-10T20:28:21.880Z,2.69
2023-06-10T20:30:48.323Z,2.69
2023-06-10T20:33:14.786Z,2.60
2023-06-10T20:35:41.272Z,2.64
2023-06-10T20:38:07.693Z,2.58
2023-06-10T20:40:34.138Z,2.70
2023-06-10T20:43:00.639Z,2.61
2023-06-10T20:45:27.085Z,2.65
2023-06-10T20:47:53.621Z,2.55
2023-06-10T20:50:20.215Z,2.65
2023-06-10T20:52:46.652Z,2.81
2023-06-10T20:55:13.285Z,2.66
2023-06-10T20:57:39.871Z,2.77
2023-06-10T21:00:06.332Z,2.84
2023-06-10T21:02:32.898Z,2.54
2023-06-10T21:04:59.407Z,2.43
2023-06-10T21:07:25.879Z,2.59
2023-06-10T21:09:52.330Z,2.73
2023-06-10T21:12:18.938Z,2.62
2023-06-10T21:14:45.392Z,2.39
2023-06-10T21:17:11.828Z,2.55
2023-06-10T21:19:38.339Z,2.61
2023-06-10T21:22:05.281Z,2.49
2023-06-10T21:24:31.888Z,2.67
2023-06-10T21:26:58.380Z,2.54
2023-06-10T21:29:25.266Z,2.63
2023-06-10T21:31:52.018Z,2.81
2023-06-10T21:34:18.504Z,2.57
2023-06-10T21:36:45.032Z,2.60
2023-06-10T21:39:11.503Z,2.71
2023-06-10T21:41:37.942Z,2.74
2023-06-10T21:44:04.437Z,2.66
2023-06-10T21:46:30.894Z,2.59
2023-06-10T21:48:57.500Z,2.64
2023-06-10T21:51:24.022Z,2.60
2023-06-10T21:53:50.462Z,2.67
2023-06-10T21:56:16.901Z,2.76
2023-06-10T21:58:43.383Z,2.61
2023-06-10T22:01:09.854Z,2.68
2023-06-10T22:03:36.451Z,2.54
2023-06-10T22:06:02.972Z,2.72
2023-06-10T22:08:29.544Z,2.68
2023-06-10T22:10:56.032Z,2.72
2023-06-10T22:13:22.506Z,2.72
2023-06-10T22:15:52.886Z,2.67
2023-06-10T22:18:19.343Z,2.73
2023-06-10T22:20:45.821Z,2.77
2023-06-10T22:23:12.312Z,2.70
2023-06-10T22:25:38.766Z,2.88
2023-06-10T22:28:05.194Z,2.81
2023-06-10T22:30:31.685Z,2.73
2023-06-10T22:32:58.176Z,2.55
2023-06-10T22:35:24.677Z,2.67
2023-06-10T22:37:51.180Z,2.89
2023-06-10T22:40:17.702Z,2.83
2023-06-10T22:42:44.185Z,2.68
2023-06-10T22:45:10.912Z,3.10
2023-06-10T22:47:37.663Z,2.78
2023-06-10T22:50:04.201Z,3.00
2023-06-10T22:52:30.683Z,2.84
2023-06-10T22:54:57.105Z,3.01
2023-06-10T22:57:23.603Z,2.92
2023-06-10T22:59:50.091Z,2.81
2023-06-10T23:02:16.576Z,2.78
2023-06-10T23:04:43.088Z,2.68
2023-06-10T23:07:09.602Z,2.87
2023-06-10T23:09:36.028Z,2.90
2023-06-10T23:12:02.455Z,2.91
2023-06-10T23:14:28.944Z,3.00
2023-06-10T23:16:55.444Z,2.72
2023-06-10T23:19:21.874Z,2.76
2023-06-10T23:21:48.378Z,2.89
2023-06-10T23:24:14.950Z,2.83
2023-06-10T23:26:41.428Z,2.89
2023-06-10T23:29:07.906Z,3.04
2023-06-10T23:31:34.464Z,2.89
2023-06-10T23:34:01.113Z,2.86
2023-06-10T23:36:27.818Z,2.96
2023-06-10T23:38:54.270Z,2.86
2023-06-10T23:41:20.740Z,2.73
2023-06-10T23:43:47.345Z,2.77
2023-06-10T23:46:13.830Z,2.87
2023-06-10T23:48:40.329Z,2.86
2023-06-10T23:51:06.805Z,2.80
2023-06-10T23:53:33.238Z,2.70
2023-06-10T23:56:05.833Z,2.92
2023-06-10T23:58:32.297Z,2.73
